Carpentaria Downs Airport


Codes: YCPN/CFP
Name: Carpentaria Downs Airport
City: Carpentaria Downs
Country: Australia
Elevation: 1585 ft.

Photos at Carpentaria Downs Airport


   Photos courtesy of SpottingLog. You can add your own sightings and photos by signing up for a free trial today.



No photos found.

Weather at Carpentaria Downs Airport


Time (UTC)DescriptionTempratureWindCloud coverageVisibilityPressureHumidity
17-Jun-2024 06:00Clear Sky25°C9 mph, SE2%10000m1015hPa22%
17-Jun-2024 09:00Clear Sky21°C9 mph, SE1%10000m1015hPa30%
17-Jun-2024 12:00Clear Sky15°C9 mph, SE3%10000m1018hPa43%
17-Jun-2024 15:00Few Clouds12°C7 mph, SE20%10000m1018hPa51%
17-Jun-2024 18:00Few Clouds11°C7 mph, SE14%10000m1018hPa56%
17-Jun-2024 21:00Few Clouds9°C7 mph, SE17%10000m1019hPa60%
18-Jun-2024 00:00Few Clouds18°C11 mph, SE11%10000m1019hPa32%
18-Jun-2024 03:00Clear Sky24°C9 mph, SE3%10000m1016hPa22%
18-Jun-2024 06:00Few Clouds25°C9 mph, SE18%10000m1014hPa20%
18-Jun-2024 09:00Clear Sky17°C9 mph, SE6%10000m1016hPa30%
18-Jun-2024 12:00Clear Sky14°C9 mph, E5%10000m1018hPa38%
18-Jun-2024 15:00Clear Sky11°C7 mph, SE2%10000m1018hPa52%
18-Jun-2024 18:00Clear Sky10°C7 mph, SE2%10000m1017hPa62%
18-Jun-2024 21:00Clear Sky9°C7 mph, SE0%10000m1019hPa53%
19-Jun-2024 00:00Clear Sky20°C9 mph, SE0%10000m1019hPa25%
19-Jun-2024 03:00Clear Sky25°C9 mph, SE0%10000m1015hPa17%
19-Jun-2024 06:00Clear Sky26°C9 mph, SE1%10000m1013hPa18%
19-Jun-2024 09:00Clear Sky18°C7 mph, SE0%10000m1015hPa31%
19-Jun-2024 12:00Clear Sky15°C7 mph, E0%10000m1017hPa45%
19-Jun-2024 15:00Clear Sky13°C7 mph, SE0%10000m1017hPa73%
19-Jun-2024 18:00Clear Sky11°C7 mph, SE0%10000m1018hPa87%
19-Jun-2024 21:00Clear Sky11°C7 mph, SE0%10000m1019hPa84%
20-Jun-2024 00:00Clear Sky21°C11 mph, E0%10000m1019hPa38%
20-Jun-2024 03:00Clear Sky26°C11 mph, SE2%10000m1016hPa25%
20-Jun-2024 06:00Clear Sky27°C11 mph, SE1%10000m1014hPa23%
20-Jun-2024 09:00Clear Sky20°C9 mph, SE1%10000m1016hPa37%
20-Jun-2024 12:00Clear Sky16°C7 mph, E1%10000m1018hPa57%
20-Jun-2024 15:00Clear Sky13°C7 mph, SE0%10000m1018hPa73%
20-Jun-2024 18:00Clear Sky12°C7 mph, SE0%10000m1018hPa77%
20-Jun-2024 21:00Clear Sky11°C7 mph, SE5%10000m1020hPa76%
21-Jun-2024 00:00Clear Sky21°C13 mph, SE5%10000m1020hPa40%
21-Jun-2024 03:00Clear Sky26°C11 mph, SE6%10000m1016hPa27%
21-Jun-2024 06:00Clear Sky27°C11 mph, SE8%10000m1015hPa26%
21-Jun-2024 09:00Scattered Clouds19°C9 mph, E28%10000m1018hPa42%
21-Jun-2024 12:00Broken Clouds19°C11 mph, SE62%10000m1020hPa45%
21-Jun-2024 15:00Overcast Clouds17°C11 mph, SE96%10000m1020hPa46%
21-Jun-2024 18:00Overcast Clouds16°C11 mph, SE98%10000m1019hPa42%
21-Jun-2024 21:00Overcast Clouds14°C11 mph, SE100%10000m1020hPa40%
22-Jun-2024 00:00Overcast Clouds19°C16 mph, SE100%10000m1021hPa28%
22-Jun-2024 03:00Broken Clouds24°C16 mph, SE78%10000m1018hPa27%